sensor_id;sensor_type;location;lat;lon;timestamp;P1;durP1;ratioP1;P2;durP2;ratioP2
76256;SDS011;65074;50.436;8.672;2023-04-03T00:01:48;3.17;;;0.90;;
76256;SDS011;65074;50.436;8.672;2023-04-03T00:05:12;2.55;;;1.00;;
76256;SDS011;65074;50.436;8.672;2023-04-03T00:08:37;3.53;;;0.80;;
76256;SDS011;65074;50.436;8.672;2023-04-03T00:12:01;2.00;;;0.90;;
76256;SDS011;65074;50.436;8.672;2023-04-03T00:15:25;1.55;;;0.90;;
76256;SDS011;65074;50.436;8.672;2023-04-03T00:18:49;2.20;;;0.93;;
76256;SDS011;65074;50.436;8.672;2023-04-03T00:22:12;2.42;;;0.90;;
76256;SDS011;65074;50.436;8.672;2023-04-03T00:25:36;0.65;;;0.60;;
76256;SDS011;65074;50.436;8.672;2023-04-03T00:29:00;2.05;;;0.90;;
76256;SDS011;65074;50.436;8.672;2023-04-03T00:32:24;2.92;;;0.82;;
76256;SDS011;65074;50.436;8.672;2023-04-03T00:35:49;0.88;;;0.50;;
76256;SDS011;65074;50.436;8.672;2023-04-03T00:39:13;2.45;;;0.93;;
76256;SDS011;65074;50.436;8.672;2023-04-03T00:42:40;2.30;;;0.70;;
76256;SDS011;65074;50.436;8.672;2023-04-03T00:46:04;0.75;;;0.52;;
76256;SDS011;65074;50.436;8.672;2023-04-03T00:49:30;1.55;;;0.50;;
76256;SDS011;65074;50.436;8.672;2023-04-03T00:52:55;3.40;;;0.60;;
76256;SDS011;65074;50.436;8.672;2023-04-03T00:56:22;1.85;;;0.60;;
76256;SDS011;65074;50.436;8.672;2023-04-03T00:59:50;2.35;;;1.30;;
76256;SDS011;65074;50.436;8.672;2023-04-03T01:03:21;1.95;;;0.98;;
76256;SDS011;65074;50.436;8.672;2023-04-03T01:07:03;3.40;;;0.65;;
76256;SDS011;65074;50.436;8.672;2023-04-03T01:10:28;2.08;;;0.70;;
76256;SDS011;65074;50.436;8.672;2023-04-03T01:13:52;2.33;;;0.50;;
76256;SDS011;65074;50.436;8.672;2023-04-03T01:17:29;2.47;;;0.73;;
76256;SDS011;65074;50.436;8.672;2023-04-03T01:24:57;1.25;;;0.60;;
76256;SDS011;65074;50.436;8.672;2023-04-03T01:28:26;3.13;;;0.70;;
76256;SDS011;65074;50.436;8.672;2023-04-03T01:35:16;1.58;;;0.85;;
76256;SDS011;65074;50.436;8.672;2023-04-03T01:38:45;1.05;;;0.70;;
76256;SDS011;65074;50.436;8.672;2023-04-03T01:42:09;1.85;;;0.60;;
76256;SDS011;65074;50.436;8.672;2023-04-03T01:45:34;1.25;;;0.77;;
76256;SDS011;65074;50.436;8.672;2023-04-03T01:48:58;0.95;;;0.55;;
76256;SDS011;65074;50.436;8.672;2023-04-03T01:52:22;1.25;;;0.55;;
76256;SDS011;65074;50.436;8.672;2023-04-03T01:55:46;4.65;;;0.68;;
76256;SDS011;65074;50.436;8.672;2023-04-03T01:59:10;1.80;;;0.55;;
76256;SDS011;65074;50.436;8.672;2023-04-03T02:02:38;1.33;;;0.40;;
76256;SDS011;65074;50.436;8.672;2023-04-03T02:06:02;1.73;;;0.70;;
76256;SDS011;65074;50.436;8.672;2023-04-03T02:09:26;2.80;;;1.00;;
76256;SDS011;65074;50.436;8.672;2023-04-03T02:12:50;2.55;;;0.90;;
76256;SDS011;65074;50.436;8.672;2023-04-03T02:16:14;3.33;;;0.80;;
76256;SDS011;65074;50.436;8.672;2023-04-03T02:19:37;1.60;;;0.50;;
76256;SDS011;65074;50.436;8.672;2023-04-03T02:23:02;1.35;;;0.50;;
76256;SDS011;65074;50.436;8.672;2023-04-03T02:26:25;3.17;;;0.80;;
76256;SDS011;65074;50.436;8.672;2023-04-03T02:29:49;1.65;;;0.70;;
76256;SDS011;65074;50.436;8.672;2023-04-03T02:33:14;4.47;;;0.52;;
76256;SDS011;65074;50.436;8.672;2023-04-03T02:36:39;1.63;;;0.52;;
76256;SDS011;65074;50.436;8.672;2023-04-03T02:40:04;1.13;;;0.70;;
76256;SDS011;65074;50.436;8.672;2023-04-03T02:43:30;1.95;;;0.80;;
76256;SDS011;65074;50.436;8.672;2023-04-03T02:46:54;1.58;;;0.60;;
76256;SDS011;65074;50.436;8.672;2023-04-03T02:50:18;1.73;;;0.70;;
76256;SDS011;65074;50.436;8.672;2023-04-03T02:53:42;1.83;;;0.70;;
76256;SDS011;65074;50.436;8.672;2023-04-03T02:57:09;1.55;;;0.77;;
76256;SDS011;65074;50.436;8.672;2023-04-03T03:00:33;1.58;;;0.80;;
76256;SDS011;65074;50.436;8.672;2023-04-03T03:03:58;2.10;;;0.93;;
76256;SDS011;65074;50.436;8.672;2023-04-03T03:07:22;2.47;;;0.75;;
76256;SDS011;65074;50.436;8.672;2023-04-03T03:10:46;2.30;;;0.43;;
76256;SDS011;65074;50.436;8.672;2023-04-03T03:14:10;1.15;;;0.70;;
76256;SDS011;65074;50.436;8.672;2023-04-03T03:17:34;1.50;;;0.63;;
76256;SDS011;65074;50.436;8.672;2023-04-03T03:20:59;1.27;;;0.50;;
76256;SDS011;65074;50.436;8.672;2023-04-03T03:24:23;1.73;;;0.90;;
76256;SDS011;65074;50.436;8.672;2023-04-03T03:27:47;2.10;;;0.98;;
76256;SDS011;65074;50.436;8.672;2023-04-03T03:31:11;2.88;;;0.93;;
76256;SDS011;65074;50.436;8.672;2023-04-03T03:34:35;1.98;;;1.05;;
76256;SDS011;65074;50.436;8.672;2023-04-03T03:37:59;2.03;;;0.55;;
76256;SDS011;65074;50.436;8.672;2023-04-03T03:41:23;0.65;;;0.38;;
76256;SDS011;65074;50.436;8.672;2023-04-03T03:44:48;1.40;;;0.70;;
76256;SDS011;65074;50.436;8.672;2023-04-03T03:48:16;2.38;;;0.55;;
76256;SDS011;65074;50.436;8.672;2023-04-03T03:51:41;2.80;;;0.70;;
76256;SDS011;65074;50.436;8.672;2023-04-03T03:55:05;1.90;;;0.68;;
76256;SDS011;65074;50.436;8.672;2023-04-03T03:58:30;2.33;;;0.75;;
76256;SDS011;65074;50.436;8.672;2023-04-03T04:01:54;2.13;;;0.82;;
76256;SDS011;65074;50.436;8.672;2023-04-03T04:05:20;1.60;;;0.70;;
76256;SDS011;65074;50.436;8.672;2023-04-03T04:08:44;3.20;;;0.70;;
76256;SDS011;65074;50.436;8.672;2023-04-03T04:12:08;2.58;;;0.90;;
76256;SDS011;65074;50.436;8.672;2023-04-03T04:15:33;1.80;;;0.80;;
76256;SDS011;65074;50.436;8.672;2023-04-03T04:19:02;1.20;;;0.55;;
76256;SDS011;65074;50.436;8.672;2023-04-03T04:22:28;2.20;;;0.65;;
76256;SDS011;65074;50.436;8.672;2023-04-03T04:25:52;1.38;;;0.63;;
76256;SDS011;65074;50.436;8.672;2023-04-03T04:29:17;0.90;;;0.73;;
76256;SDS011;65074;50.436;8.672;2023-04-03T04:32:44;2.13;;;0.82;;
76256;SDS011;65074;50.436;8.672;2023-04-03T04:36:11;3.00;;;0.82;;
76256;SDS011;65074;50.436;8.672;2023-04-03T04:39:35;3.25;;;0.80;;
76256;SDS011;65074;50.436;8.672;2023-04-03T04:42:59;1.75;;;0.90;;
76256;SDS011;65074;50.436;8.672;2023-04-03T04:46:24;4.63;;;0.90;;
76256;SDS011;65074;50.436;8.672;2023-04-03T04:49:48;0.55;;;0.55;;
76256;SDS011;65074;50.436;8.672;2023-04-03T04:53:12;1.20;;;0.88;;
76256;SDS011;65074;50.436;8.672;2023-04-03T04:56:37;2.70;;;0.98;;
76256;SDS011;65074;50.436;8.672;2023-04-03T05:00:02;2.92;;;1.30;;
76256;SDS011;65074;50.436;8.672;2023-04-03T05:03:27;2.83;;;0.80;;
76256;SDS011;65074;50.436;8.672;2023-04-03T05:06:56;3.05;;;0.82;;
76256;SDS011;65074;50.436;8.672;2023-04-03T05:10:20;2.35;;;0.98;;
76256;SDS011;65074;50.436;8.672;2023-04-03T05:13:48;1.13;;;0.80;;
76256;SDS011;65074;50.436;8.672;2023-04-03T05:17:12;3.03;;;1.08;;
76256;SDS011;65074;50.436;8.672;2023-04-03T05:20:36;2.47;;;1.38;;
76256;SDS011;65074;50.436;8.672;2023-04-03T05:27:30;3.25;;;1.00;;
76256;SDS011;65074;50.436;8.672;2023-04-03T05:30:56;5.63;;;1.42;;
76256;SDS011;65074;50.436;8.672;2023-04-03T05:34:20;7.15;;;1.08;;
76256;SDS011;65074;50.436;8.672;2023-04-03T05:37:47;4.50;;;1.20;;
76256;SDS011;65074;50.436;8.672;2023-04-03T05:41:11;3.30;;;1.10;;
76256;SDS011;65074;50.436;8.672;2023-04-03T05:44:37;4.70;;;1.33;;
76256;SDS011;65074;50.436;8.672;2023-04-03T05:48:01;3.85;;;1.35;;
76256;SDS011;65074;50.436;8.672;2023-04-03T05:51:30;4.63;;;1.02;;
76256;SDS011;65074;50.436;8.672;2023-04-03T05:54:58;2.10;;;0.98;;
76256;SDS011;65074;50.436;8.672;2023-04-03T05:58:22;2.13;;;1.20;;
76256;SDS011;65074;50.436;8.672;2023-04-03T06:01:49;3.00;;;1.05;;
76256;SDS011;65074;50.436;8.672;2023-04-03T06:05:18;3.00;;;0.80;;
76256;SDS011;65074;50.436;8.672;2023-04-03T06:08:42;5.93;;;1.13;;
76256;SDS011;65074;50.436;8.672;2023-04-03T06:12:06;2.58;;;1.23;;
76256;SDS011;65074;50.436;8.672;2023-04-03T06:15:31;3.70;;;1.45;;
76256;SDS011;65074;50.436;8.672;2023-04-03T06:18:55;2.72;;;1.25;;
76256;SDS011;65074;50.436;8.672;2023-04-03T06:22:19;2.90;;;1.00;;
76256;SDS011;65074;50.436;8.672;2023-04-03T06:25:43;3.92;;;1.73;;
76256;SDS011;65074;50.436;8.672;2023-04-03T06:29:07;3.38;;;1.33;;
76256;SDS011;65074;50.436;8.672;2023-04-03T06:32:31;3.58;;;1.30;;
76256;SDS011;65074;50.436;8.672;2023-04-03T06:35:56;2.10;;;1.33;;
76256;SDS011;65074;50.436;8.672;2023-04-03T06:39:21;3.25;;;1.42;;
76256;SDS011;65074;50.436;8.672;2023-04-03T06:42:47;4.20;;;1.33;;
76256;SDS011;65074;50.436;8.672;2023-04-03T06:46:13;4.70;;;1.65;;
76256;SDS011;65074;50.436;8.672;2023-04-03T06:49:41;3.05;;;1.40;;
76256;SDS011;65074;50.436;8.672;2023-04-03T06:53:06;2.72;;;1.23;;
76256;SDS011;65074;50.436;8.672;2023-04-03T06:56:31;4.53;;;1.40;;
76256;SDS011;65074;50.436;8.672;2023-04-03T06:59:55;3.60;;;1.42;;
76256;SDS011;65074;50.436;8.672;2023-04-03T07:03:19;3.08;;;1.45;;
76256;SDS011;65074;50.436;8.672;2023-04-03T07:06:45;4.38;;;1.83;;
76256;SDS011;65074;50.436;8.672;2023-04-03T07:10:09;1.67;;;1.35;;
76256;SDS011;65074;50.436;8.672;2023-04-03T07:13:34;3.38;;;1.30;;
76256;SDS011;65074;50.436;8.672;2023-04-03T07:16:58;5.50;;;2.47;;
76256;SDS011;65074;50.436;8.672;2023-04-03T07:20:22;4.68;;;1.60;;
76256;SDS011;65074;50.436;8.672;2023-04-03T07:23:46;4.60;;;1.65;;
76256;SDS011;65074;50.436;8.672;2023-04-03T07:27:11;6.80;;;1.90;;
76256;SDS011;65074;50.436;8.672;2023-04-03T07:30:35;3.50;;;1.48;;
76256;SDS011;65074;50.436;8.672;2023-04-03T07:34:06;4.40;;;2.00;;
76256;SDS011;65074;50.436;8.672;2023-04-03T07:37:30;4.20;;;1.70;;
76256;SDS011;65074;50.436;8.672;2023-04-03T07:40:24;2.67;;;1.50;;
76256;SDS011;65074;50.436;8.672;2023-04-03T07:43:48;4.93;;;1.92;;
76256;SDS011;65074;50.436;8.672;2023-04-03T07:47:12;2.00;;;1.33;;
76256;SDS011;65074;50.436;8.672;2023-04-03T07:50:36;2.08;;;1.13;;
76256;SDS011;65074;50.436;8.672;2023-04-03T07:54:00;3.55;;;1.55;;
76256;SDS011;65074;50.436;8.672;2023-04-03T07:57:24;2.72;;;1.27;;
76256;SDS011;65074;50.436;8.672;2023-04-03T08:00:48;1.90;;;0.90;;
76256;SDS011;65074;50.436;8.672;2023-04-03T08:04:12;2.17;;;1.35;;
76256;SDS011;65074;50.436;8.672;2023-04-03T08:07:37;2.92;;;1.27;;
76256;SDS011;65074;50.436;8.672;2023-04-03T08:11:01;2.13;;;1.50;;
76256;SDS011;65074;50.436;8.672;2023-04-03T08:14:26;1.88;;;1.38;;
76256;SDS011;65074;50.436;8.672;2023-04-03T08:17:50;1.50;;;0.93;;
76256;SDS011;65074;50.436;8.672;2023-04-03T08:21:14;3.22;;;1.55;;
76256;SDS011;65074;50.436;8.672;2023-04-03T08:24:38;4.63;;;2.00;;
76256;SDS011;65074;50.436;8.672;2023-04-03T08:28:05;4.45;;;1.48;;
76256;SDS011;65074;50.436;8.672;2023-04-03T08:31:29;6.03;;;2.15;;
76256;SDS011;65074;50.436;8.672;2023-04-03T08:34:53;2.83;;;1.20;;
76256;SDS011;65074;50.436;8.672;2023-04-03T08:38:16;2.40;;;1.40;;
76256;SDS011;65074;50.436;8.672;2023-04-03T08:41:44;3.35;;;1.20;;
76256;SDS011;65074;50.436;8.672;2023-04-03T08:45:10;1.90;;;1.35;;
76256;SDS011;65074;50.436;8.672;2023-04-03T08:48:41;2.75;;;1.42;;
76256;SDS011;65074;50.436;8.672;2023-04-03T08:56:28;1.85;;;1.13;;
76256;SDS011;65074;50.436;8.672;2023-04-03T08:59:56;1.48;;;1.08;;
76256;SDS011;65074;50.436;8.672;2023-04-03T09:03:47;2.38;;;1.13;;
76256;SDS011;65074;50.436;8.672;2023-04-03T09:07:16;2.00;;;1.02;;
76256;SDS011;65074;50.436;8.672;2023-04-03T09:10:45;2.47;;;1.20;;
76256;SDS011;65074;50.436;8.672;2023-04-03T09:18:09;2.03;;;1.20;;
76256;SDS011;65074;50.436;8.672;2023-04-03T09:21:56;4.10;;;1.50;;
76256;SDS011;65074;50.436;8.672;2023-04-03T09:25:27;3.90;;;1.92;;
76256;SDS011;65074;50.436;8.672;2023-04-03T09:29:07;4.03;;;1.65;;
76256;SDS011;65074;50.436;8.672;2023-04-03T09:32:37;2.75;;;1.00;;
76256;SDS011;65074;50.436;8.672;2023-04-03T09:36:02;1.27;;;1.00;;
76256;SDS011;65074;50.436;8.672;2023-04-03T09:39:31;3.75;;;1.48;;
76256;SDS011;65074;50.436;8.672;2023-04-03T09:43:01;2.45;;;1.30;;
76256;SDS011;65074;50.436;8.672;2023-04-03T09:46:29;2.90;;;1.42;;
76256;SDS011;65074;50.436;8.672;2023-04-03T09:53:41;2.58;;;1.40;;
76256;SDS011;65074;50.436;8.672;2023-04-03T09:57:07;1.30;;;1.20;;
76256;SDS011;65074;50.436;8.672;2023-04-03T10:00:53;1.52;;;1.08;;
76256;SDS011;65074;50.436;8.672;2023-04-03T10:04:25;1.77;;;1.00;;
76256;SDS011;65074;50.436;8.672;2023-04-03T10:08:07;3.45;;;1.20;;
76256;SDS011;65074;50.436;8.672;2023-04-03T10:11:57;3.75;;;1.20;;
76256;SDS011;65074;50.436;8.672;2023-04-03T10:15:35;3.40;;;1.48;;
76256;SDS011;65074;50.436;8.672;2023-04-03T10:19:05;4.65;;;1.70;;
76256;SDS011;65074;50.436;8.672;2023-04-03T10:34:22;3.20;;;1.10;;
76256;SDS011;65074;50.436;8.672;2023-04-03T10:42:14;3.70;;;1.33;;
76256;SDS011;65074;50.436;8.672;2023-04-03T10:56:51;2.53;;;1.40;;
76256;SDS011;65074;50.436;8.672;2023-04-03T11:00:17;2.10;;;1.20;;
76256;SDS011;65074;50.436;8.672;2023-04-03T11:07:17;3.65;;;1.15;;
76256;SDS011;65074;50.436;8.672;2023-04-03T11:10:51;3.13;;;1.10;;
76256;SDS011;65074;50.436;8.672;2023-04-03T11:14:28;1.70;;;1.33;;
76256;SDS011;65074;50.436;8.672;2023-04-03T11:18:02;2.00;;;0.85;;
76256;SDS011;65074;50.436;8.672;2023-04-03T11:25:41;1.35;;;0.95;;
76256;SDS011;65074;50.436;8.672;2023-04-03T11:29:12;2.38;;;1.20;;
76256;SDS011;65074;50.436;8.672;2023-04-03T11:36:33;2.15;;;1.00;;
76256;SDS011;65074;50.436;8.672;2023-04-03T11:43:26;2.38;;;0.95;;
76256;SDS011;65074;50.436;8.672;2023-04-03T11:46:58;2.25;;;1.13;;
76256;SDS011;65074;50.436;8.672;2023-04-03T11:58:14;1.63;;;0.65;;
76256;SDS011;65074;50.436;8.672;2023-04-03T12:01:48;3.00;;;1.05;;
76256;SDS011;65074;50.436;8.672;2023-04-03T12:05:26;5.88;;;1.00;;
76256;SDS011;65074;50.436;8.672;2023-04-03T12:08:57;1.55;;;0.70;;
76256;SDS011;65074;50.436;8.672;2023-04-03T12:12:29;1.08;;;0.90;;
76256;SDS011;65074;50.436;8.672;2023-04-03T12:15:53;1.52;;;1.23;;
76256;SDS011;65074;50.436;8.672;2023-04-03T12:19:36;3.65;;;1.33;;
76256;SDS011;65074;50.436;8.672;2023-04-03T12:23:26;1.58;;;0.80;;
76256;SDS011;65074;50.436;8.672;2023-04-03T12:30:21;1.05;;;0.68;;
76256;SDS011;65074;50.436;8.672;2023-04-03T12:34:09;1.15;;;0.50;;
76256;SDS011;65074;50.436;8.672;2023-04-03T12:37:39;1.60;;;0.70;;
76256;SDS011;65074;50.436;8.672;2023-04-03T12:44:51;1.38;;;0.70;;
76256;SDS011;65074;50.436;8.672;2023-04-03T12:48:24;1.40;;;0.70;;
76256;SDS011;65074;50.436;8.672;2023-04-03T12:51:51;2.15;;;1.00;;
76256;SDS011;65074;50.436;8.672;2023-04-03T12:55:26;1.17;;;0.63;;
76256;SDS011;65074;50.436;8.672;2023-04-03T12:58:52;1.38;;;0.50;;
76256;SDS011;65074;50.436;8.672;2023-04-03T13:02:26;1.17;;;0.80;;
76256;SDS011;65074;50.436;8.672;2023-04-03T13:05:54;1.67;;;0.90;;
76256;SDS011;65074;50.436;8.672;2023-04-03T13:12:57;3.30;;;0.93;;
76256;SDS011;65074;50.436;8.672;2023-04-03T13:16:27;2.95;;;1.35;;
76256;SDS011;65074;50.436;8.672;2023-04-03T13:19:53;3.17;;;0.60;;
76256;SDS011;65074;50.436;8.672;2023-04-03T13:23:17;2.63;;;0.60;;
76256;SDS011;65074;50.436;8.672;2023-04-03T13:26:42;1.77;;;0.80;;
76256;SDS011;65074;50.436;8.672;2023-04-03T13:37:55;3.53;;;1.05;;
76256;SDS011;65074;50.436;8.672;2023-04-03T13:41:39;1.10;;;0.75;;
76256;SDS011;65074;50.436;8.672;2023-04-03T13:48:43;2.00;;;0.63;;
76256;SDS011;65074;50.436;8.672;2023-04-03T13:55:58;1.27;;;0.65;;
76256;SDS011;65074;50.436;8.672;2023-04-03T13:59:27;2.92;;;0.63;;
76256;SDS011;65074;50.436;8.672;2023-04-03T14:03:00;2.58;;;0.90;;
76256;SDS011;65074;50.436;8.672;2023-04-03T14:06:26;1.50;;;0.73;;
76256;SDS011;65074;50.436;8.672;2023-04-03T14:09:51;0.98;;;0.65;;
76256;SDS011;65074;50.436;8.672;2023-04-03T14:13:16;2.05;;;0.63;;
76256;SDS011;65074;50.436;8.672;2023-04-03T14:16:44;4.65;;;0.80;;
76256;SDS011;65074;50.436;8.672;2023-04-03T14:20:18;1.38;;;0.60;;
76256;SDS011;65074;50.436;8.672;2023-04-03T14:23:44;2.97;;;0.80;;
76256;SDS011;65074;50.436;8.672;2023-04-03T14:27:15;1.35;;;0.70;;
76256;SDS011;65074;50.436;8.672;2023-04-03T14:30:47;1.35;;;0.90;;
76256;SDS011;65074;50.436;8.672;2023-04-03T14:34:13;2.13;;;1.10;;
76256;SDS011;65074;50.436;8.672;2023-04-03T14:37:37;3.40;;;0.85;;
76256;SDS011;65074;50.436;8.672;2023-04-03T14:41:01;1.48;;;0.50;;
76256;SDS011;65074;50.436;8.672;2023-04-03T14:44:25;3.70;;;0.70;;
76256;SDS011;65074;50.436;8.672;2023-04-03T14:47:50;0.95;;;0.60;;
76256;SDS011;65074;50.436;8.672;2023-04-03T14:51:15;1.60;;;0.90;;
76256;SDS011;65074;50.436;8.672;2023-04-03T14:54:51;1.35;;;0.70;;
76256;SDS011;65074;50.436;8.672;2023-04-03T14:58:16;1.15;;;0.65;;
76256;SDS011;65074;50.436;8.672;2023-04-03T15:01:42;1.92;;;0.90;;
76256;SDS011;65074;50.436;8.672;2023-04-03T15:05:08;1.00;;;0.55;;
76256;SDS011;65074;50.436;8.672;2023-04-03T15:08:33;1.67;;;0.77;;
76256;SDS011;65074;50.436;8.672;2023-04-03T15:11:59;1.67;;;0.60;;
76256;SDS011;65074;50.436;8.672;2023-04-03T15:15:23;1.42;;;0.65;;
76256;SDS011;65074;50.436;8.672;2023-04-03T15:18:50;2.40;;;0.98;;
76256;SDS011;65074;50.436;8.672;2023-04-03T15:22:15;1.30;;;0.80;;
76256;SDS011;65074;50.436;8.672;2023-04-03T15:25:44;2.17;;;1.00;;
76256;SDS011;65074;50.436;8.672;2023-04-03T15:29:08;1.23;;;0.75;;
76256;SDS011;65074;50.436;8.672;2023-04-03T15:32:36;1.58;;;0.70;;
76256;SDS011;65074;50.436;8.672;2023-04-03T15:36:00;2.72;;;1.00;;
76256;SDS011;65074;50.436;8.672;2023-04-03T15:39:25;1.20;;;0.70;;
76256;SDS011;65074;50.436;8.672;2023-04-03T15:42:49;1.88;;;0.60;;
76256;SDS011;65074;50.436;8.672;2023-04-03T15:46:13;3.88;;;0.93;;
76256;SDS011;65074;50.436;8.672;2023-04-03T15:49:37;0.85;;;0.70;;
76256;SDS011;65074;50.436;8.672;2023-04-03T15:53:02;3.15;;;0.65;;
76256;SDS011;65074;50.436;8.672;2023-04-03T15:56:26;1.77;;;0.70;;
76256;SDS011;65074;50.436;8.672;2023-04-03T15:59:52;1.35;;;0.73;;
76256;SDS011;65074;50.436;8.672;2023-04-03T16:03:17;3.97;;;0.90;;
76256;SDS011;65074;50.436;8.672;2023-04-03T16:06:42;2.85;;;0.80;;
76256;SDS011;65074;50.436;8.672;2023-04-03T16:10:07;0.88;;;0.50;;
76256;SDS011;65074;50.436;8.672;2023-04-03T16:13:32;2.05;;;0.88;;
76256;SDS011;65074;50.436;8.672;2023-04-03T16:16:56;1.63;;;0.50;;
76256;SDS011;65074;50.436;8.672;2023-04-03T16:20:20;1.80;;;0.60;;
76256;SDS011;65074;50.436;8.672;2023-04-03T16:23:44;1.10;;;0.65;;
76256;SDS011;65074;50.436;8.672;2023-04-03T16:27:09;1.60;;;0.68;;
76256;SDS011;65074;50.436;8.672;2023-04-03T16:30:32;1.75;;;0.90;;
76256;SDS011;65074;50.436;8.672;2023-04-03T16:33:57;1.05;;;0.60;;
76256;SDS011;65074;50.436;8.672;2023-04-03T16:37:21;1.48;;;0.70;;
76256;SDS011;65074;50.436;8.672;2023-04-03T16:40:47;1.15;;;0.93;;
76256;SDS011;65074;50.436;8.672;2023-04-03T16:44:11;2.20;;;0.55;;
76256;SDS011;65074;50.436;8.672;2023-04-03T16:47:35;1.02;;;0.65;;
76256;SDS011;65074;50.436;8.672;2023-04-03T16:50:59;2.58;;;0.88;;
76256;SDS011;65074;50.436;8.672;2023-04-03T16:54:27;1.67;;;0.68;;
76256;SDS011;65074;50.436;8.672;2023-04-03T16:57:51;1.33;;;0.65;;
76256;SDS011;65074;50.436;8.672;2023-04-03T17:01:16;1.98;;;0.60;;
76256;SDS011;65074;50.436;8.672;2023-04-03T17:04:40;3.67;;;0.70;;
76256;SDS011;65074;50.436;8.672;2023-04-03T17:08:04;1.42;;;0.60;;
76256;SDS011;65074;50.436;8.672;2023-04-03T17:11:28;1.02;;;0.50;;
76256;SDS011;65074;50.436;8.672;2023-04-03T17:14:53;3.50;;;0.88;;
76256;SDS011;65074;50.436;8.672;2023-04-03T17:18:17;1.60;;;0.50;;
76256;SDS011;65074;50.436;8.672;2023-04-03T17:21:41;2.90;;;0.75;;
76256;SDS011;65074;50.436;8.672;2023-04-03T17:25:06;0.70;;;0.40;;
76256;SDS011;65074;50.436;8.672;2023-04-03T17:28:30;2.13;;;0.63;;
76256;SDS011;65074;50.436;8.672;2023-04-03T17:31:54;1.08;;;0.60;;
76256;SDS011;65074;50.436;8.672;2023-04-03T17:35:18;2.08;;;0.82;;
76256;SDS011;65074;50.436;8.672;2023-04-03T17:38:42;1.67;;;1.02;;
76256;SDS011;65074;50.436;8.672;2023-04-03T17:42:05;0.95;;;0.50;;
76256;SDS011;65074;50.436;8.672;2023-04-03T17:45:29;2.97;;;0.80;;
76256;SDS011;65074;50.436;8.672;2023-04-03T17:48:54;2.60;;;0.82;;
76256;SDS011;65074;50.436;8.672;2023-04-03T17:52:18;1.50;;;0.73;;
76256;SDS011;65074;50.436;8.672;2023-04-03T17:55:41;4.72;;;1.05;;
76256;SDS011;65074;50.436;8.672;2023-04-03T17:59:11;2.05;;;1.10;;
76256;SDS011;65074;50.436;8.672;2023-04-03T18:02:38;4.10;;;0.68;;
76256;SDS011;65074;50.436;8.672;2023-04-03T18:06:03;2.88;;;0.73;;
76256;SDS011;65074;50.436;8.672;2023-04-03T18:09:29;2.22;;;0.50;;
76256;SDS011;65074;50.436;8.672;2023-04-03T18:12:54;2.72;;;0.73;;
76256;SDS011;65074;50.436;8.672;2023-04-03T18:16:19;1.55;;;0.63;;
76256;SDS011;65074;50.436;8.672;2023-04-03T18:19:43;1.42;;;0.70;;
76256;SDS011;65074;50.436;8.672;2023-04-03T18:23:07;2.50;;;0.70;;
76256;SDS011;65074;50.436;8.672;2023-04-03T18:26:35;2.20;;;0.75;;
76256;SDS011;65074;50.436;8.672;2023-04-03T18:30:00;3.08;;;0.80;;
76256;SDS011;65074;50.436;8.672;2023-04-03T18:33:26;2.83;;;0.85;;
76256;SDS011;65074;50.436;8.672;2023-04-03T18:36:49;2.78;;;0.70;;
76256;SDS011;65074;50.436;8.672;2023-04-03T18:40:13;1.95;;;0.88;;
76256;SDS011;65074;50.436;8.672;2023-04-03T18:43:38;1.23;;;0.60;;
76256;SDS011;65074;50.436;8.672;2023-04-03T18:47:03;3.70;;;0.82;;
76256;SDS011;65074;50.436;8.672;2023-04-03T18:50:27;2.08;;;0.60;;
76256;SDS011;65074;50.436;8.672;2023-04-03T18:53:51;1.67;;;0.82;;
76256;SDS011;65074;50.436;8.672;2023-04-03T18:57:15;1.73;;;1.13;;
76256;SDS011;65074;50.436;8.672;2023-04-03T19:00:39;0.82;;;0.60;;
76256;SDS011;65074;50.436;8.672;2023-04-03T19:04:04;3.35;;;0.90;;
76256;SDS011;65074;50.436;8.672;2023-04-03T19:07:29;2.03;;;1.10;;
76256;SDS011;65074;50.436;8.672;2023-04-03T19:10:53;0.68;;;0.47;;
76256;SDS011;65074;50.436;8.672;2023-04-03T19:14:17;2.05;;;0.70;;
76256;SDS011;65074;50.436;8.672;2023-04-03T19:17:42;1.60;;;0.80;;
76256;SDS011;65074;50.436;8.672;2023-04-03T19:21:05;2.83;;;0.85;;
76256;SDS011;65074;50.436;8.672;2023-04-03T19:24:31;2.58;;;0.70;;
76256;SDS011;65074;50.436;8.672;2023-04-03T19:27:55;2.90;;;0.80;;
76256;SDS011;65074;50.436;8.672;2023-04-03T19:31:20;3.05;;;1.00;;
76256;SDS011;65074;50.436;8.672;2023-04-03T19:34:44;2.58;;;1.30;;
76256;SDS011;65074;50.436;8.672;2023-04-03T19:38:08;2.53;;;0.95;;
76256;SDS011;65074;50.436;8.672;2023-04-03T19:41:32;2.42;;;1.02;;
76256;SDS011;65074;50.436;8.672;2023-04-03T19:44:58;1.65;;;0.80;;
76256;SDS011;65074;50.436;8.672;2023-04-03T19:48:22;1.33;;;0.95;;
76256;SDS011;65074;50.436;8.672;2023-04-03T19:51:46;4.20;;;1.25;;
76256;SDS011;65074;50.436;8.672;2023-04-03T19:55:09;1.02;;;0.70;;
76256;SDS011;65074;50.436;8.672;2023-04-03T19:58:34;1.70;;;0.80;;
76256;SDS011;65074;50.436;8.672;2023-04-03T20:01:57;1.23;;;0.80;;
76256;SDS011;65074;50.436;8.672;2023-04-03T20:05:22;2.17;;;1.02;;
76256;SDS011;65074;50.436;8.672;2023-04-03T20:08:46;1.52;;;0.52;;
76256;SDS011;65074;50.436;8.672;2023-04-03T20:12:10;2.03;;;0.77;;
76256;SDS011;65074;50.436;8.672;2023-04-03T20:15:35;1.63;;;0.93;;
76256;SDS011;65074;50.436;8.672;2023-04-03T20:18:59;1.60;;;0.60;;
76256;SDS011;65074;50.436;8.672;2023-04-03T20:22:25;1.88;;;0.90;;
76256;SDS011;65074;50.436;8.672;2023-04-03T20:25:51;1.95;;;0.82;;
76256;SDS011;65074;50.436;8.672;2023-04-03T20:29:15;1.15;;;0.63;;
76256;SDS011;65074;50.436;8.672;2023-04-03T20:32:39;3.15;;;1.30;;
76256;SDS011;65074;50.436;8.672;2023-04-03T20:36:03;1.17;;;0.85;;
76256;SDS011;65074;50.436;8.672;2023-04-03T20:39:28;2.55;;;1.00;;
76256;SDS011;65074;50.436;8.672;2023-04-03T20:42:53;1.40;;;0.77;;
76256;SDS011;65074;50.436;8.672;2023-04-03T20:46:17;1.13;;;0.82;;
76256;SDS011;65074;50.436;8.672;2023-04-03T20:49:41;2.15;;;0.88;;
76256;SDS011;65074;50.436;8.672;2023-04-03T20:53:05;2.65;;;0.95;;
76256;SDS011;65074;50.436;8.672;2023-04-03T20:56:29;1.90;;;0.95;;
76256;SDS011;65074;50.436;8.672;2023-04-03T20:59:54;2.22;;;0.85;;
76256;SDS011;65074;50.436;8.672;2023-04-03T21:03:20;1.33;;;0.93;;
76256;SDS011;65074;50.436;8.672;2023-04-03T21:22:23;2.25;;;0.93;;
76256;SDS011;65074;50.436;8.672;2023-04-03T21:25:48;1.95;;;1.20;;
76256;SDS011;65074;50.436;8.672;2023-04-03T21:29:13;2.83;;;1.00;;
76256;SDS011;65074;50.436;8.672;2023-04-03T21:32:37;2.22;;;0.80;;
76256;SDS011;65074;50.436;8.672;2023-04-03T21:36:01;2.50;;;0.95;;
76256;SDS011;65074;50.436;8.672;2023-04-03T21:39:27;3.20;;;0.60;;
76256;SDS011;65074;50.436;8.672;2023-04-03T21:42:53;1.67;;;0.90;;
76256;SDS011;65074;50.436;8.672;2023-04-03T21:46:17;1.75;;;0.82;;
76256;SDS011;65074;50.436;8.672;2023-04-03T21:49:42;2.75;;;0.93;;
76256;SDS011;65074;50.436;8.672;2023-04-03T21:53:07;1.17;;;0.80;;
76256;SDS011;65074;50.436;8.672;2023-04-03T21:56:31;2.83;;;1.25;;
76256;SDS011;65074;50.436;8.672;2023-04-03T21:59:55;1.10;;;0.73;;
76256;SDS011;65074;50.436;8.672;2023-04-03T22:03:20;5.18;;;2.38;;
76256;SDS011;65074;50.436;8.672;2023-04-03T22:06:45;6.47;;;1.90;;
76256;SDS011;65074;50.436;8.672;2023-04-03T22:10:11;5.70;;;1.40;;
76256;SDS011;65074;50.436;8.672;2023-04-03T22:13:37;4.30;;;1.50;;
76256;SDS011;65074;50.436;8.672;2023-04-03T22:17:02;2.75;;;1.20;;
76256;SDS011;65074;50.436;8.672;2023-04-03T22:20:25;4.65;;;1.10;;
76256;SDS011;65074;50.436;8.672;2023-04-03T22:23:50;2.70;;;0.93;;
76256;SDS011;65074;50.436;8.672;2023-04-03T22:27:14;3.08;;;1.77;;
76256;SDS011;65074;50.436;8.672;2023-04-03T22:30:38;2.60;;;1.33;;
76256;SDS011;65074;50.436;8.672;2023-04-03T22:34:02;2.72;;;1.13;;
76256;SDS011;65074;50.436;8.672;2023-04-03T22:37:26;3.47;;;1.20;;